FNG8 EFTU-EFTU

Flight info

Callsign FNG8
Flight time 1h 27m
Altitude 3500
Route JUTKI KORPPOO JUTKI
Aircraft D228/L-SDFGHILORVY/S

Departure

Time 2026-04-23 09:23
Airport Turku Airport (EFTU)

Arrival

Time 2026-04-23 10:51
Airport Turku Airport (EFTU)
Time Latitude Longitude Altitude Speed Heading
2026-04-23 09:14 60.51156 22.26579 159 ft 0 kts 176°
2026-04-23 09:20 60.51146 22.26575 160 ft 6 kts 208°
2026-04-23 09:20 60.51164 22.26461 156 ft 12 kts 332°
2026-04-23 09:20 60.51250 22.26495 148 ft 14 kts 30°
2026-04-23 09:21 60.51302 22.26715 144 ft 20 kts 78°
2026-04-23 09:21 60.51316 22.26960 147 ft 11 kts 84°
2026-04-23 09:21 60.51368 22.27048 145 ft 12 kts 357°
2026-04-23 09:21 60.51442 22.27005 145 ft 6 kts 297°
2026-04-23 09:22 60.51442 22.26943 143 ft 19 kts 266°
2026-04-23 09:22 60.51411 22.26256 144 ft 76 kts 265°
2026-04-23 09:22 60.51351 22.24917 256 ft 107 kts 266°
2026-04-23 09:22 60.51247 22.23250 401 ft 131 kts 264°
2026-04-23 09:23 60.50709 22.21618 568 ft 159 kts 217°
2026-04-23 09:23 60.49671 22.20688 720 ft 164 kts 208°
2026-04-23 09:23 60.48608 22.19791 890 ft 168 kts 206°
2026-04-23 09:23 60.47507 22.18923 1048 ft 171 kts 205°
2026-04-23 09:24 60.46381 22.18068 1196 ft 174 kts 204°
2026-04-23 09:24 60.45223 22.17192 1207 ft 180 kts 204°
2026-04-23 09:24 60.44038 22.16297 1209 ft 184 kts 205°
2026-04-23 09:24 60.42834 22.15380 1211 ft 185 kts 204°
2026-04-23 09:25 60.41625 22.14474 1210 ft 186 kts 204°
2026-04-23 09:25 60.40417 22.13560 1209 ft 185 kts 203°
2026-04-23 09:25 60.39212 22.12653 1209 ft 184 kts 204°
2026-04-23 09:25 60.38017 22.11739 1196 ft 183 kts 206°
2026-04-23 09:26 60.36868 22.10649 1214 ft 182 kts 207°
2026-04-23 09:26 60.35786 22.09654 1262 ft 180 kts 208°
2026-04-23 09:26 60.34616 22.08581 1315 ft 180 kts 208°
2026-04-23 09:26 60.33476 22.07529 1367 ft 180 kts 208°
2026-04-23 09:27 60.32339 22.06481 1421 ft 180 kts 208°
2026-04-23 09:27 60.31198 22.05430 1477 ft 180 kts 208°
2026-04-23 09:27 60.30055 22.04375 1527 ft 181 kts 208°
2026-04-23 09:27 60.28908 22.03320 1582 ft 181 kts 208°
2026-04-23 09:28 60.27759 22.02264 1603 ft 183 kts 208°
2026-04-23 09:28 60.26611 22.01210 1600 ft 184 kts 208°
2026-04-23 09:28 60.25443 22.00139 1606 ft 185 kts 208°
2026-04-23 09:28 60.24271 21.99064 1610 ft 184 kts 208°
2026-04-23 09:29 60.23105 21.97996 1613 ft 184 kts 208°
2026-04-23 09:29 60.21937 21.96922 1617 ft 186 kts 208°
2026-04-23 09:29 60.20765 21.95856 1617 ft 184 kts 208°
2026-04-23 09:29 60.19598 21.94785 1615 ft 185 kts 208°
2026-04-23 09:30 60.18429 21.93722 1613 ft 185 kts 207°
2026-04-23 09:30 60.17258 21.92652 1619 ft 186 kts 209°
2026-04-23 09:30 60.16082 21.91568 1626 ft 186 kts 208°
2026-04-23 09:30 60.14906 21.90502 1625 ft 186 kts 208°
2026-04-23 09:31 60.13729 21.89435 1611 ft 185 kts 208°
2026-04-23 09:31 60.12561 21.88365 1612 ft 185 kts 208°
2026-04-23 09:31 60.11390 21.87301 1612 ft 184 kts 208°
2026-04-23 09:31 60.10223 21.86246 1606 ft 184 kts 208°
2026-04-23 09:32 60.09048 21.85179 1611 ft 186 kts 208°
2026-04-23 09:32 60.07865 21.84104 1609 ft 187 kts 208°
2026-04-23 09:32 60.06681 21.83031 1609 ft 186 kts 208°
2026-04-23 09:32 60.05515 21.81978 1612 ft 186 kts 208°
2026-04-23 09:33 60.04434 21.80623 1605 ft 181 kts 228°
2026-04-23 09:33 60.03694 21.78634 1623 ft 175 kts 250°
2026-04-23 09:33 60.03366 21.76384 1841 ft 165 kts 268°
2026-04-23 09:33 60.03359 21.74144 2043 ft 159 kts 275°
2026-04-23 09:34 60.03359 21.71939 2254 ft 158 kts 276°
2026-04-23 09:34 60.03362 21.69749 2454 ft 156 kts 275°
2026-04-23 09:34 60.03366 21.67596 2664 ft 154 kts 275°
2026-04-23 09:34 60.03372 21.65462 2876 ft 153 kts 276°
2026-04-23 09:35 60.03375 21.63342 3082 ft 152 kts 276°
2026-04-23 09:35 60.03379 21.61227 3297 ft 153 kts 276°
2026-04-23 09:35 60.03380 21.59828 3433 ft 152 kts 277°
2026-04-23 09:35 60.03387 21.57686 3522 ft 158 kts 276°
2026-04-23 09:36 60.03391 21.55440 3530 ft 164 kts 276°
2026-04-23 09:36 60.03393 21.53146 3531 ft 166 kts 276°
2026-04-23 09:36 60.03393 21.50829 3527 ft 168 kts 276°
2026-04-23 09:36 60.03396 21.48501 3528 ft 167 kts 276°
2026-04-23 09:37 60.03399 21.46175 3524 ft 167 kts 276°
2026-04-23 09:37 60.03398 21.43855 3524 ft 167 kts 276°
2026-04-23 09:37 60.03402 21.41537 3532 ft 167 kts 276°
2026-04-23 09:37 60.03399 21.39214 3531 ft 167 kts 276°
2026-04-23 09:38 60.03399 21.36923 3534 ft 166 kts 276°
2026-04-23 09:38 60.03398 21.34610 3535 ft 166 kts 276°
2026-04-23 09:38 60.03398 21.32297 3536 ft 166 kts 276°
2026-04-23 09:38 60.03397 21.29981 3536 ft 167 kts 276°
2026-04-23 09:39 60.03395 21.27665 3535 ft 166 kts 276°
2026-04-23 09:39 60.03393 21.25351 3536 ft 167 kts 276°
2026-04-23 09:39 60.03391 21.23029 3528 ft 167 kts 276°
2026-04-23 09:39 60.03387 21.20710 3532 ft 167 kts 276°
2026-04-23 09:40 60.03384 21.18391 3530 ft 167 kts 276°
2026-04-23 09:40 60.03381 21.16071 3530 ft 167 kts 276°
2026-04-23 09:40 60.03376 21.13743 3532 ft 167 kts 276°
2026-04-23 09:40 60.03372 21.11416 3532 ft 167 kts 276°
2026-04-23 09:41 60.03367 21.09093 3531 ft 167 kts 276°
2026-04-23 09:41 60.03362 21.06769 3531 ft 167 kts 276°
2026-04-23 09:41 60.03356 21.04478 3530 ft 167 kts 276°
2026-04-23 09:41 60.03350 21.02155 3530 ft 167 kts 276°
2026-04-23 09:42 60.03346 20.99830 3515 ft 167 kts 275°
2026-04-23 09:42 60.03346 20.97493 3523 ft 169 kts 275°
2026-04-23 09:42 60.03465 20.95201 3523 ft 163 kts 293°
2026-04-23 09:42 60.03901 20.93117 3527 ft 162 kts 297°
2026-04-23 09:43 60.03998 20.90870 3523 ft 173 kts 259°
2026-04-23 09:43 60.03233 20.88943 3524 ft 188 kts 217°
2026-04-23 09:43 60.01927 20.88426 3522 ft 199 kts 174°
2026-04-23 09:43 60.00701 20.89649 3521 ft 200 kts 133°
2026-04-23 09:44 60.00124 20.92073 3523 ft 191 kts 90°
2026-04-23 09:44 60.00370 20.94566 3534 ft 180 kts 62°
2026-04-23 09:44 60.00918 20.96794 3538 ft 176 kts 49°
2026-04-23 09:44 60.01487 20.98969 3541 ft 185 kts 72°
2026-04-23 09:45 60.01626 21.01562 3543 ft 189 kts 78°
2026-04-23 09:45 60.01697 21.04175 3539 ft 191 kts 83°
2026-04-23 09:45 60.01706 21.06862 3541 ft 195 kts 84°
2026-04-23 09:45 60.01704 21.09590 3537 ft 197 kts 84°
2026-04-23 09:46 60.01708 21.12336 3541 ft 198 kts 84°
2026-04-23 09:46 60.01713 21.15093 3536 ft 198 kts 84°
2026-04-23 09:46 60.01718 21.17854 3535 ft 199 kts 84°
2026-04-23 09:46 60.01721 21.20615 3536 ft 198 kts 84°
2026-04-23 09:47 60.01725 21.23373 3537 ft 198 kts 84°
2026-04-23 09:47 60.01728 21.26132 3536 ft 199 kts 84°
2026-04-23 09:47 60.01730 21.28894 3535 ft 198 kts 84°
2026-04-23 09:47 60.01731 21.31658 3535 ft 199 kts 84°
2026-04-23 09:48 60.01732 21.34422 3536 ft 199 kts 84°
2026-04-23 09:48 60.01733 21.37179 3535 ft 198 kts 84°
2026-04-23 09:48 60.01733 21.39937 3534 ft 198 kts 84°
2026-04-23 09:48 60.01732 21.42690 3530 ft 198 kts 84°
2026-04-23 09:49 60.01731 21.45448 3527 ft 198 kts 84°
2026-04-23 09:49 60.01729 21.48174 3527 ft 199 kts 84°
2026-04-23 09:49 60.01727 21.50936 3526 ft 199 kts 84°
2026-04-23 09:49 60.01723 21.53695 3526 ft 198 kts 84°
2026-04-23 09:50 60.01720 21.56456 3525 ft 199 kts 84°
2026-04-23 09:50 60.01716 21.59219 3524 ft 199 kts 84°
2026-04-23 09:50 60.01712 21.61978 3524 ft 198 kts 84°
2026-04-23 09:50 60.01706 21.64732 3524 ft 198 kts 84°
2026-04-23 09:51 60.01700 21.67486 3521 ft 198 kts 84°
2026-04-23 09:51 60.01694 21.70242 3533 ft 198 kts 82°
2026-04-23 09:51 60.01688 21.72985 3521 ft 197 kts 83°
2026-04-23 09:51 60.01679 21.75719 3521 ft 197 kts 83°
2026-04-23 09:52 60.01661 21.78452 3521 ft 197 kts 84°
2026-04-23 09:52 60.01691 21.81165 3510 ft 191 kts 72°
2026-04-23 09:52 60.02133 21.83610 3510 ft 185 kts 59°
2026-04-23 09:52 60.02482 21.86102 3502 ft 194 kts 84°
2026-04-23 09:53 60.02007 21.88682 3501 ft 207 kts 126°
2026-04-23 09:53 60.00828 21.90224 3504 ft 209 kts 166°
2026-04-23 09:53 59.99428 21.90084 3507 ft 200 kts 207°
2026-04-23 09:53 59.98434 21.88377 3506 ft 184 kts 249°
2026-04-23 09:54 59.98263 21.86027 3508 ft 167 kts 290°
2026-04-23 09:54 59.98850 21.84122 3515 ft 161 kts 315°
2026-04-23 09:54 59.99617 21.82490 3516 ft 162 kts 311°
2026-04-23 09:54 60.00139 21.80483 3510 ft 166 kts 292°
2026-04-23 09:55 60.00181 21.78125 3505 ft 173 kts 272°
2026-04-23 09:55 60.00083 21.75720 3512 ft 174 kts 273°
2026-04-23 09:55 60.00027 21.73313 3511 ft 173 kts 276°
2026-04-23 09:55 60.00022 21.70910 3513 ft 173 kts 277°
2026-04-23 09:56 60.00031 21.68511 3518 ft 173 kts 277°
2026-04-23 09:56 60.00038 21.66111 3512 ft 172 kts 276°
2026-04-23 09:56 60.00042 21.63722 3512 ft 172 kts 276°
2026-04-23 09:56 60.00047 21.61365 3512 ft 172 kts 276°
2026-04-23 09:57 60.00051 21.58980 3512 ft 171 kts 276°
2026-04-23 09:57 60.00054 21.56599 3512 ft 171 kts 276°
2026-04-23 09:57 60.00057 21.54220 3512 ft 171 kts 276°
2026-04-23 09:57 60.00059 21.51836 3512 ft 171 kts 276°
2026-04-23 09:58 60.00062 21.49453 3512 ft 172 kts 276°
2026-04-23 09:58 60.00063 21.47068 3512 ft 172 kts 276°
2026-04-23 09:58 60.00065 21.44689 3513 ft 172 kts 276°
2026-04-23 09:58 60.00066 21.42300 3512 ft 172 kts 276°
2026-04-23 09:59 60.00066 21.39915 3517 ft 171 kts 276°
2026-04-23 09:59 60.00066 21.37534 3517 ft 171 kts 275°
2026-04-23 09:59 60.00066 21.35158 3517 ft 171 kts 275°
2026-04-23 09:59 60.00065 21.32776 3518 ft 171 kts 275°
2026-04-23 10:00 60.00064 21.30394 3518 ft 171 kts 276°
2026-04-23 10:00 60.00062 21.28016 3517 ft 171 kts 276°
2026-04-23 10:00 60.00060 21.25638 3518 ft 171 kts 275°
2026-04-23 10:00 60.00057 21.23256 3518 ft 171 kts 276°
2026-04-23 10:01 60.00055 21.20870 3519 ft 171 kts 275°
2026-04-23 10:01 60.00051 21.18488 3518 ft 171 kts 276°
2026-04-23 10:01 60.00047 21.16106 3519 ft 172 kts 275°
2026-04-23 10:01 60.00043 21.13719 3519 ft 172 kts 275°
2026-04-23 10:02 60.00038 21.11362 3522 ft 172 kts 275°
2026-04-23 10:02 60.00034 21.08976 3524 ft 172 kts 275°
2026-04-23 10:02 60.00028 21.06590 3524 ft 172 kts 275°
2026-04-23 10:02 60.00022 21.04205 3524 ft 172 kts 275°
2026-04-23 10:03 60.00015 21.01816 3524 ft 172 kts 275°
2026-04-23 10:03 60.00006 20.99432 3525 ft 172 kts 275°
2026-04-23 10:03 59.99988 20.97043 3509 ft 173 kts 274°
2026-04-23 10:03 60.00123 20.94709 3524 ft 167 kts 298°
2026-04-23 10:04 60.00753 20.92775 3530 ft 166 kts 308°
2026-04-23 10:04 60.01318 20.90760 3514 ft 171 kts 285°
2026-04-23 10:04 60.01086 20.88393 3516 ft 185 kts 244°
2026-04-23 10:04 60.00054 20.86782 3520 ft 199 kts 204°
2026-04-23 10:05 59.98661 20.86777 3523 ft 207 kts 163°
2026-04-23 10:05 59.97527 20.88463 3520 ft 205 kts 122°
2026-04-23 10:05 59.97137 20.91090 3522 ft 195 kts 81°
2026-04-23 10:05 59.97560 20.93544 3531 ft 184 kts 54°
2026-04-23 10:06 59.98114 20.95868 3550 ft 188 kts 63°
2026-04-23 10:06 59.98351 20.98492 3529 ft 196 kts 81°
2026-04-23 10:06 59.98374 21.01244 3534 ft 199 kts 84°
2026-04-23 10:06 59.98362 21.03974 3537 ft 199 kts 84°
2026-04-23 10:07 59.98361 21.06734 3536 ft 199 kts 84°
2026-04-23 10:07 59.98368 21.09491 3536 ft 198 kts 84°
2026-04-23 10:07 59.98375 21.12246 3533 ft 199 kts 84°
2026-04-23 10:07 59.98380 21.15007 3533 ft 199 kts 84°
2026-04-23 10:08 59.98385 21.17774 3533 ft 199 kts 84°
2026-04-23 10:08 59.98388 21.20541 3530 ft 199 kts 84°
2026-04-23 10:08 59.98391 21.23312 3530 ft 199 kts 84°
2026-04-23 10:09 59.98396 21.28849 3529 ft 200 kts 84°
2026-04-23 10:09 59.98398 21.31617 3528 ft 199 kts 84°
2026-04-23 10:09 59.98399 21.34388 3528 ft 199 kts 84°
2026-04-23 10:09 59.98400 21.37157 3526 ft 199 kts 84°
2026-04-23 10:10 59.98399 21.39925 3521 ft 199 kts 84°
2026-04-23 10:10 59.98399 21.42686 3520 ft 199 kts 84°
2026-04-23 10:10 59.98398 21.45447 3521 ft 199 kts 84°
2026-04-23 10:10 59.98396 21.48170 3521 ft 199 kts 84°
2026-04-23 10:11 59.98393 21.50934 3521 ft 199 kts 84°
2026-04-23 10:11 59.98390 21.53701 3521 ft 199 kts 84°
2026-04-23 10:11 59.98387 21.56461 3521 ft 199 kts 84°
2026-04-23 10:11 59.98383 21.59228 3521 ft 199 kts 84°
2026-04-23 10:12 59.98379 21.61998 3531 ft 200 kts 84°
2026-04-23 10:12 59.98373 21.64781 3520 ft 200 kts 84°
2026-04-23 10:12 59.98366 21.67552 3520 ft 199 kts 83°
2026-04-23 10:12 59.98362 21.70312 3506 ft 198 kts 84°
2026-04-23 10:13 59.98354 21.73053 3504 ft 197 kts 83°
2026-04-23 10:13 59.98346 21.75788 3504 ft 197 kts 83°
2026-04-23 10:13 59.98324 21.78519 3499 ft 198 kts 89°
2026-04-23 10:13 59.98415 21.81157 3496 ft 185 kts 60°
2026-04-23 10:14 59.99053 21.83341 3502 ft 181 kts 50°
2026-04-23 10:14 59.99396 21.85814 3495 ft 197 kts 87°
2026-04-23 10:14 59.98857 21.88360 3497 ft 207 kts 128°
2026-04-23 10:14 59.97628 21.89810 3498 ft 208 kts 169°
2026-04-23 10:15 59.96232 21.89528 3503 ft 201 kts 210°
2026-04-23 10:15 59.95278 21.87741 3500 ft 183 kts 251°
2026-04-23 10:15 59.95132 21.85382 3504 ft 168 kts 288°
2026-04-23 10:15 59.95722 21.83529 3518 ft 160 kts 318°
2026-04-23 10:16 59.96471 21.81897 3502 ft 163 kts 302°
2026-04-23 10:16 59.96631 21.79610 3501 ft 171 kts 276°
2026-04-23 10:16 59.96687 21.77260 3520 ft 171 kts 278°
2026-04-23 10:16 59.96692 21.74866 3509 ft 173 kts 276°
2026-04-23 10:17 59.96691 21.72471 3512 ft 173 kts 277°
2026-04-23 10:17 59.96696 21.70070 3513 ft 173 kts 277°
2026-04-23 10:17 59.96701 21.67667 3513 ft 173 kts 277°
2026-04-23 10:17 59.96706 21.65269 3508 ft 173 kts 276°
2026-04-23 10:18 59.96710 21.62880 3509 ft 172 kts 276°
2026-04-23 10:18 59.96715 21.60493 3509 ft 172 kts 276°
2026-04-23 10:18 59.96718 21.58112 3509 ft 171 kts 276°
2026-04-23 10:18 59.96722 21.55731 3508 ft 171 kts 276°
2026-04-23 10:19 59.96725 21.53385 3509 ft 171 kts 276°
2026-04-23 10:19 59.96727 21.51002 3509 ft 171 kts 276°
2026-04-23 10:19 59.96727 21.48626 3509 ft 171 kts 276°
2026-04-23 10:19 59.96731 21.46247 3509 ft 171 kts 275°
2026-04-23 10:20 59.96731 21.43868 3508 ft 171 kts 276°
2026-04-23 10:20 59.96733 21.41491 3508 ft 171 kts 276°
2026-04-23 10:20 59.96733 21.39116 3508 ft 171 kts 276°
2026-04-23 10:20 59.96733 21.36744 3514 ft 171 kts 275°
2026-04-23 10:21 59.96733 21.34366 3514 ft 171 kts 276°
2026-04-23 10:21 59.96732 21.31991 3514 ft 171 kts 276°
2026-04-23 10:21 59.96732 21.29616 3515 ft 172 kts 276°
2026-04-23 10:21 59.96728 21.27232 3518 ft 172 kts 275°
2026-04-23 10:22 59.96727 21.24851 3516 ft 171 kts 276°
2026-04-23 10:22 59.96723 21.22470 3515 ft 172 kts 275°
2026-04-23 10:22 59.96720 21.20088 3515 ft 172 kts 275°
2026-04-23 10:22 59.96717 21.17708 3516 ft 172 kts 275°
2026-04-23 10:23 59.96713 21.15321 3516 ft 172 kts 275°
2026-04-23 10:23 59.96708 21.12970 3516 ft 172 kts 275°
2026-04-23 10:23 59.96703 21.10552 3515 ft 172 kts 275°
2026-04-23 10:23 59.96698 21.08201 3517 ft 172 kts 275°
2026-04-23 10:24 59.96693 21.05811 3524 ft 172 kts 275°
2026-04-23 10:24 59.96687 21.03424 3522 ft 172 kts 275°
2026-04-23 10:24 59.96680 21.01037 3523 ft 172 kts 275°
2026-04-23 10:24 59.96679 20.98648 3522 ft 172 kts 276°
2026-04-23 10:25 59.96681 20.96252 3522 ft 173 kts 275°
2026-04-23 10:25 59.96725 20.93878 3503 ft 168 kts 287°
2026-04-23 10:25 59.97201 20.91795 3510 ft 167 kts 291°
2026-04-23 10:25 59.97076 20.89436 3515 ft 183 kts 249°
2026-04-23 10:26 59.96124 20.87671 3508 ft 198 kts 208°
2026-04-23 10:26 59.94739 20.87446 3517 ft 208 kts 168°
2026-04-23 10:26 59.93876 20.88266 3510 ft 209 kts 141°
2026-04-23 10:26 59.93079 20.90597 3516 ft 204 kts 101°
2026-04-23 10:27 59.93145 20.93294 3528 ft 193 kts 61°
2026-04-23 10:27 59.93971 20.95209 3540 ft 178 kts 27°
2026-04-23 10:27 59.95013 20.97796 3515 ft 193 kts 70°
2026-04-23 10:27 59.95091 20.99597 3516 ft 200 kts 86°
2026-04-23 10:28 59.95017 21.02369 3522 ft 199 kts 85°
2026-04-23 10:28 59.95014 21.05135 3524 ft 199 kts 84°
2026-04-23 10:28 59.95030 21.07900 3523 ft 199 kts 83°
2026-04-23 10:28 59.95041 21.10652 3524 ft 198 kts 84°
2026-04-23 10:29 59.95044 21.13411 3525 ft 198 kts 84°
2026-04-23 10:29 59.95048 21.16129 3523 ft 199 kts 84°
2026-04-23 10:29 59.95052 21.18894 3524 ft 199 kts 84°
2026-04-23 10:29 59.95056 21.21660 3524 ft 199 kts 84°
2026-04-23 10:30 59.95060 21.24423 3524 ft 199 kts 84°
2026-04-23 10:30 59.95062 21.27191 3524 ft 199 kts 84°
2026-04-23 10:30 59.95064 21.29960 3524 ft 200 kts 84°
2026-04-23 10:30 59.95065 21.32724 3526 ft 199 kts 84°
2026-04-23 10:31 59.95066 21.35492 3527 ft 200 kts 84°
2026-04-23 10:31 59.95066 21.38260 3522 ft 199 kts 84°
2026-04-23 10:31 59.95066 21.41026 3515 ft 199 kts 84°
2026-04-23 10:31 59.95065 21.43786 3515 ft 199 kts 84°
2026-04-23 10:32 59.95064 21.46549 3515 ft 199 kts 84°
2026-04-23 10:32 59.95062 21.49309 3516 ft 199 kts 84°
2026-04-23 10:32 59.95059 21.52081 3513 ft 200 kts 84°
2026-04-23 10:32 59.95056 21.54813 3511 ft 199 kts 84°
2026-04-23 10:33 59.95052 21.57573 3510 ft 199 kts 84°
2026-04-23 10:33 59.95048 21.60343 3509 ft 199 kts 84°
2026-04-23 10:33 59.95042 21.63124 3506 ft 200 kts 84°
2026-04-23 10:33 59.95038 21.65888 3510 ft 198 kts 83°
2026-04-23 10:34 59.95031 21.68626 3509 ft 197 kts 83°
2026-04-23 10:34 59.95024 21.71355 3509 ft 196 kts 83°
2026-04-23 10:34 59.95017 21.74084 3512 ft 196 kts 83°
2026-04-23 10:34 59.95010 21.76816 3502 ft 198 kts 83°
2026-04-23 10:35 59.95009 21.79552 3502 ft 197 kts 83°
2026-04-23 10:35 59.94996 21.82285 3502 ft 197 kts 84°
2026-04-23 10:35 59.94983 21.85024 3502 ft 197 kts 84°
2026-04-23 10:35 59.94969 21.87749 3527 ft 197 kts 84°
2026-04-23 10:36 59.94955 21.90476 3524 ft 196 kts 84°
2026-04-23 10:36 59.94940 21.93201 3518 ft 196 kts 84°
2026-04-23 10:36 59.95183 21.95767 3511 ft 183 kts 53°
2026-04-23 10:36 59.96085 21.97345 3519 ft 170 kts 18°
2026-04-23 10:37 59.97204 21.97883 3526 ft 164 kts
2026-04-23 10:37 59.98328 21.98250 3448 ft 169 kts
2026-04-23 10:37 59.99512 21.98662 3197 ft 175 kts
2026-04-23 10:37 60.00723 21.99076 2932 ft 177 kts
2026-04-23 10:38 60.01942 21.99489 2680 ft 178 kts
2026-04-23 10:38 60.03167 21.99903 2429 ft 179 kts
2026-04-23 10:38 60.04397 22.00319 2161 ft 180 kts
2026-04-23 10:38 60.05629 22.00736 1959 ft 180 kts
2026-04-23 10:39 60.06865 22.01153 1780 ft 179 kts
2026-04-23 10:39 60.08085 22.01568 1652 ft 178 kts
2026-04-23 10:39 60.09300 22.01982 1629 ft 176 kts
2026-04-23 10:39 60.10509 22.02390 1627 ft 176 kts
2026-04-23 10:40 60.11714 22.02798 1624 ft 175 kts
2026-04-23 10:40 60.12910 22.03207 1621 ft 175 kts
2026-04-23 10:40 60.14113 22.03613 1622 ft 176 kts
2026-04-23 10:40 60.15320 22.04026 1622 ft 175 kts
2026-04-23 10:41 60.16504 22.04424 1626 ft 175 kts
2026-04-23 10:41 60.17703 22.04840 1626 ft 175 kts
2026-04-23 10:41 60.18906 22.05253 1626 ft 174 kts
2026-04-23 10:41 60.20097 22.05653 1625 ft 173 kts
2026-04-23 10:42 60.21290 22.06066 1619 ft 175 kts
2026-04-23 10:42 60.22492 22.06472 1614 ft 175 kts
2026-04-23 10:42 60.23696 22.06882 1625 ft 176 kts
2026-04-23 10:42 60.24903 22.07299 1625 ft 175 kts
2026-04-23 10:43 60.26100 22.07708 1615 ft 174 kts
2026-04-23 10:43 60.27294 22.08119 1613 ft 174 kts
2026-04-23 10:43 60.28494 22.08530 1576 ft 176 kts
2026-04-23 10:43 60.29704 22.08945 1524 ft 177 kts
2026-04-23 10:44 60.30912 22.09361 1472 ft 176 kts
2026-04-23 10:44 60.32120 22.09776 1418 ft 176 kts
2026-04-23 10:44 60.33327 22.10191 1358 ft 176 kts
2026-04-23 10:44 60.34534 22.10608 1307 ft 177 kts
2026-04-23 10:45 60.35750 22.11027 1256 ft 177 kts
2026-04-23 10:45 60.36962 22.11437 1217 ft 175 kts
2026-04-23 10:45 60.38148 22.11893 1216 ft 174 kts 15°
2026-04-23 10:45 60.39187 22.13198 1208 ft 180 kts 38°
2026-04-23 10:46 60.40064 22.15002 1208 ft 180 kts 41°
2026-04-23 10:46 60.40825 22.16581 1215 ft 182 kts 41°
2026-04-23 10:46 60.41483 22.17960 1209 ft 182 kts 41°
2026-04-23 10:46 60.42358 22.19812 1214 ft 181 kts 41°
2026-04-23 10:47 60.43236 22.21660 1210 ft 183 kts 41°
2026-04-23 10:47 60.44117 22.23523 1210 ft 182 kts 41°
2026-04-23 10:47 60.44978 22.25339 1214 ft 181 kts 42°
2026-04-23 10:47 60.45854 22.27199 1203 ft 184 kts 41°
2026-04-23 10:48 60.46738 22.29065 1180 ft 182 kts 41°
2026-04-23 10:48 60.47612 22.30922 1102 ft 177 kts 41°
2026-04-23 10:48 60.48405 22.32613 1000 ft 159 kts 40°
2026-04-23 10:48 60.49171 22.34185 906 ft 153 kts 33°
2026-04-23 10:49 60.50120 22.34739 784 ft 141 kts 351°
2026-04-23 10:49 60.51061 22.34298 712 ft 131 kts 341°
2026-04-23 10:49 60.51705 22.33384 691 ft 114 kts 296°
2026-04-23 10:49 60.51632 22.31691 569 ft 126 kts 271°
2026-04-23 10:50 60.51575 22.29948 389 ft 116 kts 267°
2026-04-23 10:50 60.51504 22.28393 193 ft 110 kts 265°
2026-04-23 10:50 60.51441 22.26940 146 ft 89 kts 265°
2026-04-23 10:50 60.51396 22.25925 148 ft 56 kts 265°
2026-04-23 10:51 60.51376 22.25478 148 ft 22 kts 264°
2026-04-23 10:51 60.51313 22.25277 146 ft 18 kts 207°
2026-04-23 10:51 60.51221 22.25306 145 ft 14 kts 134°
2026-04-23 10:51 60.51204 22.25501 149 ft 15 kts 85°
2026-04-23 10:52 60.51213 22.25711 152 ft 16 kts 85°
2026-04-23 10:52 60.51224 22.25962 153 ft 19 kts 85°
2026-04-23 10:52 60.51233 22.26111 153 ft 11 kts 73°
2026-04-23 10:52 60.51274 22.26301 148 ft 18 kts 65°
2026-04-23 10:53 60.51293 22.26484 145 ft 10 kts 115°
2026-04-23 10:53 60.51236 22.26554 150 ft 8 kts 156°
2026-04-23 10:53 60.51190 22.26574 156 ft 5 kts 175°
2026-04-23 10:53 60.51166 22.26577 158 ft 0 kts 175°